sensor_id;sensor_type;location;lat;lon;timestamp;P1;durP1;ratioP1;P2;durP2;ratioP2
46721;SDS011;32455;43.430;23.136;2022-09-16T00:02:03;12.23;;;1.52;;
46721;SDS011;32455;43.430;23.136;2022-09-16T00:04:48;10.27;;;2.30;;
46721;SDS011;32455;43.430;23.136;2022-09-16T00:07:34;5.82;;;1.63;;
46721;SDS011;32455;43.430;23.136;2022-09-16T00:10:18;5.78;;;1.63;;
46721;SDS011;32455;43.430;23.136;2022-09-16T00:13:04;7.03;;;2.30;;
46721;SDS011;32455;43.430;23.136;2022-09-16T00:15:49;7.78;;;1.63;;
46721;SDS011;32455;43.430;23.136;2022-09-16T00:18:34;6.03;;;1.58;;
46721;SDS011;32455;43.430;23.136;2022-09-16T00:21:20;9.77;;;2.22;;
46721;SDS011;32455;43.430;23.136;2022-09-16T00:24:06;10.38;;;2.25;;
46721;SDS011;32455;43.430;23.136;2022-09-16T00:26:51;12.55;;;2.20;;
46721;SDS011;32455;43.430;23.136;2022-09-16T00:29:37;7.53;;;2.08;;
46721;SDS011;32455;43.430;23.136;2022-09-16T00:32:22;9.57;;;2.25;;
46721;SDS011;32455;43.430;23.136;2022-09-16T00:35:08;10.88;;;2.80;;
46721;SDS011;32455;43.430;23.136;2022-09-16T00:37:54;10.25;;;2.17;;
46721;SDS011;32455;43.430;23.136;2022-09-16T00:40:44;10.80;;;2.28;;
46721;SDS011;32455;43.430;23.136;2022-09-16T00:43:47;6.07;;;1.83;;
46721;SDS011;32455;43.430;23.136;2022-09-16T00:46:45;12.25;;;2.50;;
46721;SDS011;32455;43.430;23.136;2022-09-16T00:49:32;15.43;;;2.33;;
46721;SDS011;32455;43.430;23.136;2022-09-16T00:52:17;6.55;;;2.28;;
46721;SDS011;32455;43.430;23.136;2022-09-16T00:55:06;10.15;;;2.13;;
46721;SDS011;32455;43.430;23.136;2022-09-16T00:57:54;11.80;;;2.40;;
46721;SDS011;32455;43.430;23.136;2022-09-16T01:00:44;8.70;;;1.85;;
46721;SDS011;32455;43.430;23.136;2022-09-16T01:03:29;9.98;;;2.38;;
46721;SDS011;32455;43.430;23.136;2022-09-16T01:06:22;10.15;;;1.85;;
46721;SDS011;32455;43.430;23.136;2022-09-16T01:09:10;8.25;;;2.17;;
46721;SDS011;32455;43.430;23.136;2022-09-16T01:11:56;8.70;;;1.67;;
46721;SDS011;32455;43.430;23.136;2022-09-16T01:14:42;7.43;;;1.67;;
46721;SDS011;32455;43.430;23.136;2022-09-16T01:27:05;6.53;;;1.48;;
46721;SDS011;32455;43.430;23.136;2022-09-16T01:33:24;4.70;;;1.15;;
46721;SDS011;32455;43.430;23.136;2022-09-16T01:36:39;8.95;;;2.45;;
46721;SDS011;32455;43.430;23.136;2022-09-16T01:45:58;8.65;;;1.52;;
46721;SDS011;32455;43.430;23.136;2022-09-16T01:48:57;9.93;;;1.55;;
46721;SDS011;32455;43.430;23.136;2022-09-16T01:52:22;7.30;;;1.67;;
46721;SDS011;32455;43.430;23.136;2022-09-16T01:55:24;12.55;;;2.58;;
46721;SDS011;32455;43.430;23.136;2022-09-16T02:01:30;6.38;;;1.60;;
46721;SDS011;32455;43.430;23.136;2022-09-16T02:04:28;9.43;;;1.85;;
46721;SDS011;32455;43.430;23.136;2022-09-16T02:07:18;6.95;;;1.88;;
46721;SDS011;32455;43.430;23.136;2022-09-16T02:10:11;9.63;;;2.03;;
46721;SDS011;32455;43.430;23.136;2022-09-16T02:13:03;10.13;;;1.63;;
46721;SDS011;32455;43.430;23.136;2022-09-16T02:15:55;11.05;;;2.30;;
46721;SDS011;32455;43.430;23.136;2022-09-16T02:21:35;7.65;;;1.75;;
46721;SDS011;32455;43.430;23.136;2022-09-16T02:24:23;12.88;;;2.22;;
46721;SDS011;32455;43.430;23.136;2022-09-16T02:27:14;7.65;;;1.90;;
46721;SDS011;32455;43.430;23.136;2022-09-16T02:30:05;9.05;;;1.85;;
46721;SDS011;32455;43.430;23.136;2022-09-16T02:33:00;6.85;;;1.98;;
46721;SDS011;32455;43.430;23.136;2022-09-16T02:35:51;8.45;;;1.38;;
46721;SDS011;32455;43.430;23.136;2022-09-16T02:38:43;8.93;;;1.70;;
46721;SDS011;32455;43.430;23.136;2022-09-16T02:41:32;3.67;;;1.35;;
46721;SDS011;32455;43.430;23.136;2022-09-16T02:44:18;8.98;;;1.77;;
46721;SDS011;32455;43.430;23.136;2022-09-16T02:47:15;8.02;;;2.08;;
46721;SDS011;32455;43.430;23.136;2022-09-16T02:53:41;8.98;;;1.83;;
46721;SDS011;32455;43.430;23.136;2022-09-16T02:56:37;7.95;;;1.60;;
46721;SDS011;32455;43.430;23.136;2022-09-16T02:59:25;9.77;;;2.17;;
46721;SDS011;32455;43.430;23.136;2022-09-16T03:02:11;12.55;;;1.98;;
46721;SDS011;32455;43.430;23.136;2022-09-16T03:04:57;9.57;;;1.67;;
46721;SDS011;32455;43.430;23.136;2022-09-16T03:07:44;10.85;;;2.08;;
46721;SDS011;32455;43.430;23.136;2022-09-16T03:10:34;13.85;;;2.33;;
46721;SDS011;32455;43.430;23.136;2022-09-16T03:13:29;18.77;;;3.03;;
46721;SDS011;32455;43.430;23.136;2022-09-16T03:16:29;7.53;;;1.85;;
46721;SDS011;32455;43.430;23.136;2022-09-16T03:19:46;5.38;;;1.63;;
46721;SDS011;32455;43.430;23.136;2022-09-16T03:25:58;27.02;;;2.45;;
46721;SDS011;32455;43.430;23.136;2022-09-16T03:32:06;6.63;;;1.48;;
46721;SDS011;32455;43.430;23.136;2022-09-16T03:35:03;5.18;;;2.13;;
46721;SDS011;32455;43.430;23.136;2022-09-16T03:37:52;4.75;;;1.60;;
46721;SDS011;32455;43.430;23.136;2022-09-16T03:40:41;7.20;;;2.53;;
46721;SDS011;32455;43.430;23.136;2022-09-16T03:43:27;8.13;;;1.60;;
46721;SDS011;32455;43.430;23.136;2022-09-16T03:46:17;8.57;;;2.08;;
46721;SDS011;32455;43.430;23.136;2022-09-16T03:49:02;19.35;;;2.90;;
46721;SDS011;32455;43.430;23.136;2022-09-16T03:51:48;7.63;;;1.83;;
46721;SDS011;32455;43.430;23.136;2022-09-16T03:54:33;2.08;;;0.80;;
46721;SDS011;32455;43.430;23.136;2022-09-16T03:57:19;2.40;;;1.00;;
46721;SDS011;32455;43.430;23.136;2022-09-16T04:00:04;3.22;;;1.17;;
46721;SDS011;32455;43.430;23.136;2022-09-16T04:02:51;1.10;;;0.98;;
46721;SDS011;32455;43.430;23.136;2022-09-16T04:05:36;5.07;;;1.00;;
46721;SDS011;32455;43.430;23.136;2022-09-16T04:08:22;1.98;;;0.95;;
46721;SDS011;32455;43.430;23.136;2022-09-16T04:11:08;1.52;;;0.80;;
46721;SDS011;32455;43.430;23.136;2022-09-16T04:13:54;4.82;;;0.90;;
46721;SDS011;32455;43.430;23.136;2022-09-16T04:16:39;4.00;;;1.10;;
46721;SDS011;32455;43.430;23.136;2022-09-16T04:19:25;1.02;;;0.80;;
46721;SDS011;32455;43.430;23.136;2022-09-16T04:22:10;1.58;;;0.85;;
46721;SDS011;32455;43.430;23.136;2022-09-16T04:24:56;6.18;;;1.20;;
46721;SDS011;32455;43.430;23.136;2022-09-16T04:27:42;1.00;;;0.52;;
46721;SDS011;32455;43.430;23.136;2022-09-16T04:30:27;1.77;;;0.95;;
46721;SDS011;32455;43.430;23.136;2022-09-16T04:33:13;3.03;;;0.95;;
46721;SDS011;32455;43.430;23.136;2022-09-16T04:36:17;1.65;;;0.70;;
46721;SDS011;32455;43.430;23.136;2022-09-16T04:39:03;3.00;;;1.05;;
46721;SDS011;32455;43.430;23.136;2022-09-16T04:41:50;0.95;;;0.93;;
46721;SDS011;32455;43.430;23.136;2022-09-16T04:44:35;0.80;;;0.80;;
46721;SDS011;32455;43.430;23.136;2022-09-16T04:47:20;3.35;;;1.27;;
46721;SDS011;32455;43.430;23.136;2022-09-16T04:50:07;0.98;;;0.80;;
46721;SDS011;32455;43.430;23.136;2022-09-16T04:52:53;5.65;;;2.20;;
46721;SDS011;32455;43.430;23.136;2022-09-16T04:55:38;5.32;;;3.13;;
46721;SDS011;32455;43.430;23.136;2022-09-16T04:58:24;11.85;;;3.70;;
46721;SDS011;32455;43.430;23.136;2022-09-16T05:01:09;4.25;;;2.67;;
46721;SDS011;32455;43.430;23.136;2022-09-16T05:03:58;4.07;;;2.42;;
46721;SDS011;32455;43.430;23.136;2022-09-16T05:06:48;2.78;;;1.48;;
46721;SDS011;32455;43.430;23.136;2022-09-16T05:09:33;2.17;;;1.10;;
46721;SDS011;32455;43.430;23.136;2022-09-16T05:12:21;3.13;;;1.10;;
46721;SDS011;32455;43.430;23.136;2022-09-16T05:15:07;5.53;;;1.50;;
46721;SDS011;32455;43.430;23.136;2022-09-16T05:17:53;1.58;;;1.10;;
46721;SDS011;32455;43.430;23.136;2022-09-16T05:20:38;2.35;;;0.90;;
46721;SDS011;32455;43.430;23.136;2022-09-16T05:23:24;2.90;;;1.02;;
46721;SDS011;32455;43.430;23.136;2022-09-16T05:26:11;2.10;;;1.52;;
46721;SDS011;32455;43.430;23.136;2022-09-16T05:29:00;2.35;;;1.20;;
46721;SDS011;32455;43.430;23.136;2022-09-16T05:31:48;5.15;;;1.63;;
46721;SDS011;32455;43.430;23.136;2022-09-16T05:34:34;2.30;;;1.10;;
46721;SDS011;32455;43.430;23.136;2022-09-16T05:37:21;1.70;;;0.90;;
46721;SDS011;32455;43.430;23.136;2022-09-16T05:40:06;1.83;;;0.98;;
46721;SDS011;32455;43.430;23.136;2022-09-16T05:42:52;3.60;;;0.70;;
46721;SDS011;32455;43.430;23.136;2022-09-16T05:45:38;3.20;;;1.85;;
46721;SDS011;32455;43.430;23.136;2022-09-16T05:48:23;1.05;;;0.80;;
46721;SDS011;32455;43.430;23.136;2022-09-16T05:51:10;2.20;;;0.90;;
46721;SDS011;32455;43.430;23.136;2022-09-16T05:53:59;2.50;;;0.80;;
46721;SDS011;32455;43.430;23.136;2022-09-16T05:56:45;2.88;;;1.08;;
46721;SDS011;32455;43.430;23.136;2022-09-16T05:59:31;4.30;;;1.40;;
46721;SDS011;32455;43.430;23.136;2022-09-16T06:02:15;4.13;;;2.60;;
46721;SDS011;32455;43.430;23.136;2022-09-16T06:05:00;4.53;;;2.58;;
46721;SDS011;32455;43.430;23.136;2022-09-16T06:07:46;28.05;;;13.73;;
46721;SDS011;32455;43.430;23.136;2022-09-16T06:10:35;5.03;;;3.25;;
46721;SDS011;32455;43.430;23.136;2022-09-16T06:13:22;6.95;;;1.48;;
46721;SDS011;32455;43.430;23.136;2022-09-16T06:16:08;6.45;;;1.10;;
46721;SDS011;32455;43.430;23.136;2022-09-16T06:18:54;1.85;;;0.88;;
46721;SDS011;32455;43.430;23.136;2022-09-16T06:21:41;4.07;;;1.48;;
46721;SDS011;32455;43.430;23.136;2022-09-16T06:24:27;3.17;;;0.50;;
46721;SDS011;32455;43.430;23.136;2022-09-16T06:27:13;4.00;;;1.10;;
46721;SDS011;32455;43.430;23.136;2022-09-16T06:30:00;4.03;;;1.10;;
46721;SDS011;32455;43.430;23.136;2022-09-16T06:32:46;2.33;;;1.23;;
46721;SDS011;32455;43.430;23.136;2022-09-16T06:35:32;3.40;;;1.23;;
46721;SDS011;32455;43.430;23.136;2022-09-16T06:38:19;2.72;;;1.50;;
46721;SDS011;32455;43.430;23.136;2022-09-16T06:41:05;1.88;;;1.10;;
46721;SDS011;32455;43.430;23.136;2022-09-16T06:43:52;7.25;;;1.48;;
46721;SDS011;32455;43.430;23.136;2022-09-16T06:46:38;2.22;;;1.23;;
46721;SDS011;32455;43.430;23.136;2022-09-16T06:49:23;2.40;;;0.95;;
46721;SDS011;32455;43.430;23.136;2022-09-16T06:52:09;6.03;;;2.00;;
46721;SDS011;32455;43.430;23.136;2022-09-16T06:54:56;2.40;;;1.33;;
46721;SDS011;32455;43.430;23.136;2022-09-16T06:57:42;2.35;;;1.08;;
46721;SDS011;32455;43.430;23.136;2022-09-16T07:00:27;1.52;;;0.98;;
46721;SDS011;32455;43.430;23.136;2022-09-16T07:03:13;1.77;;;1.00;;
46721;SDS011;32455;43.430;23.136;2022-09-16T07:05:59;1.38;;;1.02;;
46721;SDS011;32455;43.430;23.136;2022-09-16T07:08:46;3.78;;;2.10;;
46721;SDS011;32455;43.430;23.136;2022-09-16T07:11:32;3.40;;;1.23;;
46721;SDS011;32455;43.430;23.136;2022-09-16T07:14:18;1.80;;;1.10;;
46721;SDS011;32455;43.430;23.136;2022-09-16T07:17:03;2.90;;;1.20;;
46721;SDS011;32455;43.430;23.136;2022-09-16T07:19:48;2.67;;;1.08;;
46721;SDS011;32455;43.430;23.136;2022-09-16T07:22:34;5.60;;;1.67;;
46721;SDS011;32455;43.430;23.136;2022-09-16T07:25:20;2.42;;;0.93;;
46721;SDS011;32455;43.430;23.136;2022-09-16T07:28:05;4.40;;;0.90;;
46721;SDS011;32455;43.430;23.136;2022-09-16T07:30:50;1.85;;;0.77;;
46721;SDS011;32455;43.430;23.136;2022-09-16T07:33:37;1.10;;;0.90;;
46721;SDS011;32455;43.430;23.136;2022-09-16T07:36:26;4.32;;;1.55;;
46721;SDS011;32455;43.430;23.136;2022-09-16T07:39:16;1.83;;;0.98;;
46721;SDS011;32455;43.430;23.136;2022-09-16T07:42:02;2.53;;;1.13;;
46721;SDS011;32455;43.430;23.136;2022-09-16T07:44:48;1.63;;;1.00;;
46721;SDS011;32455;43.430;23.136;2022-09-16T07:47:33;1.75;;;0.80;;
46721;SDS011;32455;43.430;23.136;2022-09-16T07:50:18;1.27;;;0.90;;
46721;SDS011;32455;43.430;23.136;2022-09-16T07:53:04;7.35;;;1.00;;
46721;SDS011;32455;43.430;23.136;2022-09-16T07:55:50;3.22;;;1.60;;
46721;SDS011;32455;43.430;23.136;2022-09-16T07:58:35;2.83;;;1.38;;
46721;SDS011;32455;43.430;23.136;2022-09-16T08:01:22;3.25;;;1.55;;
46721;SDS011;32455;43.430;23.136;2022-09-16T08:04:08;1.33;;;1.10;;
46721;SDS011;32455;43.430;23.136;2022-09-16T08:06:54;1.88;;;1.10;;
46721;SDS011;32455;43.430;23.136;2022-09-16T08:09:40;2.67;;;0.90;;
46721;SDS011;32455;43.430;23.136;2022-09-16T08:12:25;2.40;;;1.02;;
46721;SDS011;32455;43.430;23.136;2022-09-16T08:15:16;1.92;;;0.70;;
46721;SDS011;32455;43.430;23.136;2022-09-16T08:18:01;5.40;;;1.35;;
46721;SDS011;32455;43.430;23.136;2022-09-16T08:20:47;2.88;;;0.73;;
46721;SDS011;32455;43.430;23.136;2022-09-16T08:23:33;4.07;;;1.10;;
46721;SDS011;32455;43.430;23.136;2022-09-16T08:26:19;3.55;;;1.40;;
46721;SDS011;32455;43.430;23.136;2022-09-16T08:29:05;2.03;;;1.23;;
46721;SDS011;32455;43.430;23.136;2022-09-16T08:31:50;4.53;;;1.25;;
46721;SDS011;32455;43.430;23.136;2022-09-16T08:34:37;3.00;;;1.23;;
46721;SDS011;32455;43.430;23.136;2022-09-16T08:37:23;1.98;;;1.30;;
46721;SDS011;32455;43.430;23.136;2022-09-16T08:40:13;1.88;;;0.90;;
46721;SDS011;32455;43.430;23.136;2022-09-16T08:46:00;3.75;;;1.25;;
46721;SDS011;32455;43.430;23.136;2022-09-16T08:49:04;3.10;;;1.23;;
46721;SDS011;32455;43.430;23.136;2022-09-16T08:51:54;3.13;;;1.17;;
46721;SDS011;32455;43.430;23.136;2022-09-16T08:54:46;3.45;;;0.90;;
46721;SDS011;32455;43.430;23.136;2022-09-16T08:57:40;2.50;;;1.00;;
46721;SDS011;32455;43.430;23.136;2022-09-16T09:00:32;2.80;;;0.90;;
46721;SDS011;32455;43.430;23.136;2022-09-16T09:06:42;1.63;;;0.90;;
46721;SDS011;32455;43.430;23.136;2022-09-16T09:09:46;1.55;;;1.02;;
46721;SDS011;32455;43.430;23.136;2022-09-16T09:12:45;2.22;;;0.93;;
46721;SDS011;32455;43.430;23.136;2022-09-16T09:19:12;3.15;;;1.30;;
46721;SDS011;32455;43.430;23.136;2022-09-16T09:22:12;2.58;;;1.10;;
46721;SDS011;32455;43.430;23.136;2022-09-16T09:40:53;1.90;;;1.02;;
46721;SDS011;32455;43.430;23.136;2022-09-16T09:43:49;3.67;;;1.40;;
46721;SDS011;32455;43.430;23.136;2022-09-16T09:47:04;1.55;;;1.00;;
46721;SDS011;32455;43.430;23.136;2022-09-16T09:49:56;1.48;;;0.90;;
46721;SDS011;32455;43.430;23.136;2022-09-16T09:52:58;1.63;;;1.02;;
46721;SDS011;32455;43.430;23.136;2022-09-16T09:56:11;2.55;;;1.45;;
46721;SDS011;32455;43.430;23.136;2022-09-16T10:02:01;1.30;;;1.20;;
46721;SDS011;32455;43.430;23.136;2022-09-16T10:04:47;1.85;;;1.17;;
46721;SDS011;32455;43.430;23.136;2022-09-16T10:07:34;3.20;;;1.25;;
46721;SDS011;32455;43.430;23.136;2022-09-16T10:10:23;4.63;;;1.25;;
46721;SDS011;32455;43.430;23.136;2022-09-16T10:13:11;6.03;;;1.20;;
46721;SDS011;32455;43.430;23.136;2022-09-16T10:16:08;5.13;;;1.40;;
46721;SDS011;32455;43.430;23.136;2022-09-16T10:19:05;2.20;;;1.25;;
46721;SDS011;32455;43.430;23.136;2022-09-16T10:21:54;2.08;;;1.10;;
46721;SDS011;32455;43.430;23.136;2022-09-16T10:24:53;2.42;;;1.23;;
46721;SDS011;32455;43.430;23.136;2022-09-16T10:27:57;5.63;;;1.55;;
46721;SDS011;32455;43.430;23.136;2022-09-16T10:30:46;4.63;;;1.50;;
46721;SDS011;32455;43.430;23.136;2022-09-16T10:33:36;3.55;;;1.98;;
46721;SDS011;32455;43.430;23.136;2022-09-16T10:36:28;3.20;;;2.13;;
46721;SDS011;32455;43.430;23.136;2022-09-16T10:39:22;4.53;;;2.00;;
46721;SDS011;32455;43.430;23.136;2022-09-16T10:42:23;4.00;;;1.40;;
46721;SDS011;32455;43.430;23.136;2022-09-16T10:45:13;2.15;;;1.77;;
46721;SDS011;32455;43.430;23.136;2022-09-16T10:48:28;4.35;;;1.30;;
46721;SDS011;32455;43.430;23.136;2022-09-16T10:51:24;3.50;;;1.58;;
46721;SDS011;32455;43.430;23.136;2022-09-16T10:54:22;5.15;;;1.60;;
46721;SDS011;32455;43.430;23.136;2022-09-16T10:57:26;5.40;;;1.95;;
46721;SDS011;32455;43.430;23.136;2022-09-16T11:00:14;3.10;;;1.67;;
46721;SDS011;32455;43.430;23.136;2022-09-16T11:12:45;3.65;;;1.63;;
46721;SDS011;32455;43.430;23.136;2022-09-16T11:19:32;1.95;;;1.45;;
46721;SDS011;32455;43.430;23.136;2022-09-16T11:25:32;1.75;;;1.38;;
46721;SDS011;32455;43.430;23.136;2022-09-16T11:31:23;1.33;;;1.15;;
46721;SDS011;32455;43.430;23.136;2022-09-16T11:34:18;2.30;;;1.27;;
46721;SDS011;32455;43.430;23.136;2022-09-16T11:37:45;2.35;;;1.20;;
46721;SDS011;32455;43.430;23.136;2022-09-16T11:46:46;2.85;;;0.77;;
46721;SDS011;32455;43.430;23.136;2022-09-16T11:58:57;1.15;;;1.05;;
46721;SDS011;32455;43.430;23.136;2022-09-16T12:01:56;0.67;;;0.60;;
46721;SDS011;32455;43.430;23.136;2022-09-16T12:04:49;1.10;;;0.60;;
46721;SDS011;32455;43.430;23.136;2022-09-16T12:07:59;1.20;;;0.60;;
46721;SDS011;32455;43.430;23.136;2022-09-16T12:10:53;1.08;;;0.70;;
46721;SDS011;32455;43.430;23.136;2022-09-16T12:17:07;1.40;;;0.70;;
46721;SDS011;32455;43.430;23.136;2022-09-16T12:20:29;0.88;;;0.73;;
46721;SDS011;32455;43.430;23.136;2022-09-16T12:26:09;1.08;;;0.70;;
46721;SDS011;32455;43.430;23.136;2022-09-16T12:32:39;1.00;;;0.88;;
46721;SDS011;32455;43.430;23.136;2022-09-16T12:38:19;1.65;;;0.75;;
46721;SDS011;32455;43.430;23.136;2022-09-16T12:44:07;0.85;;;0.80;;
46721;SDS011;32455;43.430;23.136;2022-09-16T12:47:24;1.42;;;0.90;;
46721;SDS011;32455;43.430;23.136;2022-09-16T12:53:52;0.88;;;0.80;;
46721;SDS011;32455;43.430;23.136;2022-09-16T13:00:18;0.98;;;0.60;;
46721;SDS011;32455;43.430;23.136;2022-09-16T13:03:07;0.98;;;0.70;;
46721;SDS011;32455;43.430;23.136;2022-09-16T13:06:04;2.65;;;0.70;;
46721;SDS011;32455;43.430;23.136;2022-09-16T13:09:13;1.20;;;0.63;;
46721;SDS011;32455;43.430;23.136;2022-09-16T13:12:06;0.88;;;0.65;;
46721;SDS011;32455;43.430;23.136;2022-09-16T13:15:06;2.58;;;0.60;;
46721;SDS011;32455;43.430;23.136;2022-09-16T13:17:53;1.52;;;0.80;;
46721;SDS011;32455;43.430;23.136;2022-09-16T13:20:39;4.00;;;0.98;;
46721;SDS011;32455;43.430;23.136;2022-09-16T13:23:32;3.63;;;0.70;;
46721;SDS011;32455;43.430;23.136;2022-09-16T13:26:19;1.60;;;0.73;;
46721;SDS011;32455;43.430;23.136;2022-09-16T13:29:22;3.17;;;0.90;;
46721;SDS011;32455;43.430;23.136;2022-09-16T13:32:25;1.52;;;0.77;;
46721;SDS011;32455;43.430;23.136;2022-09-16T13:38:38;0.82;;;0.75;;
46721;SDS011;32455;43.430;23.136;2022-09-16T13:44:25;1.55;;;0.60;;
46721;SDS011;32455;43.430;23.136;2022-09-16T13:47:28;0.70;;;0.40;;
46721;SDS011;32455;43.430;23.136;2022-09-16T13:50:18;0.50;;;0.40;;
46721;SDS011;32455;43.430;23.136;2022-09-16T14:02:26;0.75;;;0.43;;
46721;SDS011;32455;43.430;23.136;2022-09-16T14:05:49;0.63;;;0.60;;
46721;SDS011;32455;43.430;23.136;2022-09-16T14:08:46;0.55;;;0.55;;
46721;SDS011;32455;43.430;23.136;2022-09-16T14:14:57;2.40;;;0.40;;
46721;SDS011;32455;43.430;23.136;2022-09-16T14:17:47;0.68;;;0.40;;
46721;SDS011;32455;43.430;23.136;2022-09-16T14:20:36;0.73;;;0.40;;
46721;SDS011;32455;43.430;23.136;2022-09-16T14:23:22;0.70;;;0.40;;
46721;SDS011;32455;43.430;23.136;2022-09-16T14:26:14;1.85;;;0.88;;
46721;SDS011;32455;43.430;23.136;2022-09-16T14:29:03;1.73;;;0.43;;
46721;SDS011;32455;43.430;23.136;2022-09-16T14:31:50;2.83;;;0.57;;
46721;SDS011;32455;43.430;23.136;2022-09-16T14:34:38;1.80;;;0.50;;
46721;SDS011;32455;43.430;23.136;2022-09-16T14:37:26;4.75;;;0.80;;
46721;SDS011;32455;43.430;23.136;2022-09-16T14:40:14;0.73;;;0.60;;
46721;SDS011;32455;43.430;23.136;2022-09-16T14:43:03;1.00;;;0.30;;
46721;SDS011;32455;43.430;23.136;2022-09-16T14:45:52;1.23;;;0.47;;
46721;SDS011;32455;43.430;23.136;2022-09-16T14:48:40;0.63;;;0.55;;
46721;SDS011;32455;43.430;23.136;2022-09-16T14:51:28;1.38;;;0.90;;
46721;SDS011;32455;43.430;23.136;2022-09-16T14:54:17;2.65;;;0.70;;
46721;SDS011;32455;43.430;23.136;2022-09-16T14:57:22;0.45;;;0.40;;
46721;SDS011;32455;43.430;23.136;2022-09-16T15:00:12;1.60;;;0.40;;
46721;SDS011;32455;43.430;23.136;2022-09-16T15:03:02;3.35;;;0.50;;
46721;SDS011;32455;43.430;23.136;2022-09-16T15:06:04;0.57;;;0.30;;
46721;SDS011;32455;43.430;23.136;2022-09-16T15:09:02;0.50;;;0.30;;
46721;SDS011;32455;43.430;23.136;2022-09-16T15:14:40;0.57;;;0.50;;
46721;SDS011;32455;43.430;23.136;2022-09-16T15:17:26;0.60;;;0.60;;
46721;SDS011;32455;43.430;23.136;2022-09-16T15:20:19;0.68;;;0.40;;
46721;SDS011;32455;43.430;23.136;2022-09-16T15:23:13;1.08;;;0.50;;
46721;SDS011;32455;43.430;23.136;2022-09-16T15:26:15;0.93;;;0.70;;
46721;SDS011;32455;43.430;23.136;2022-09-16T15:29:03;1.60;;;0.60;;
46721;SDS011;32455;43.430;23.136;2022-09-16T15:32:14;1.65;;;0.60;;
46721;SDS011;32455;43.430;23.136;2022-09-16T15:38:09;0.60;;;0.50;;
46721;SDS011;32455;43.430;23.136;2022-09-16T15:41:11;0.75;;;0.40;;
46721;SDS011;32455;43.430;23.136;2022-09-16T15:43:57;0.98;;;0.40;;
46721;SDS011;32455;43.430;23.136;2022-09-16T15:46:47;0.90;;;0.32;;
46721;SDS011;32455;43.430;23.136;2022-09-16T15:49:34;1.98;;;0.55;;
46721;SDS011;32455;43.430;23.136;2022-09-16T15:52:24;0.95;;;0.50;;
46721;SDS011;32455;43.430;23.136;2022-09-16T15:55:10;1.92;;;0.77;;
46721;SDS011;32455;43.430;23.136;2022-09-16T15:57:57;0.85;;;0.32;;
46721;SDS011;32455;43.430;23.136;2022-09-16T16:01:02;0.35;;;0.30;;
46721;SDS011;32455;43.430;23.136;2022-09-16T16:03:51;0.52;;;0.45;;
46721;SDS011;32455;43.430;23.136;2022-09-16T16:06:45;0.32;;;0.30;;
46721;SDS011;32455;43.430;23.136;2022-09-16T16:09:42;3.03;;;0.45;;
46721;SDS011;32455;43.430;23.136;2022-09-16T16:12:29;1.33;;;0.50;;
46721;SDS011;32455;43.430;23.136;2022-09-16T16:15:17;1.20;;;0.90;;
46721;SDS011;32455;43.430;23.136;2022-09-16T16:18:05;1.85;;;0.50;;
46721;SDS011;32455;43.430;23.136;2022-09-16T16:20:53;3.40;;;0.60;;
46721;SDS011;32455;43.430;23.136;2022-09-16T16:23:39;1.98;;;0.40;;
46721;SDS011;32455;43.430;23.136;2022-09-16T16:26:24;0.47;;;0.43;;
46721;SDS011;32455;43.430;23.136;2022-09-16T16:29:10;0.65;;;0.35;;
46721;SDS011;32455;43.430;23.136;2022-09-16T16:32:03;0.65;;;0.50;;
46721;SDS011;32455;43.430;23.136;2022-09-16T16:34:57;0.93;;;0.35;;
46721;SDS011;32455;43.430;23.136;2022-09-16T16:37:42;3.50;;;0.73;;
46721;SDS011;32455;43.430;23.136;2022-09-16T16:40:28;0.40;;;0.30;;
46721;SDS011;32455;43.430;23.136;2022-09-16T16:43:13;2.22;;;0.50;;
46721;SDS011;32455;43.430;23.136;2022-09-16T16:45:59;1.17;;;0.50;;
46721;SDS011;32455;43.430;23.136;2022-09-16T16:48:44;0.47;;;0.32;;
46721;SDS011;32455;43.430;23.136;2022-09-16T16:51:30;0.75;;;0.40;;
46721;SDS011;32455;43.430;23.136;2022-09-16T16:54:15;0.47;;;0.30;;
46721;SDS011;32455;43.430;23.136;2022-09-16T16:57:02;1.58;;;0.30;;
46721;SDS011;32455;43.430;23.136;2022-09-16T16:59:48;1.83;;;1.02;;
46721;SDS011;32455;43.430;23.136;2022-09-16T17:02:33;0.77;;;0.43;;
46721;SDS011;32455;43.430;23.136;2022-09-16T17:05:18;1.25;;;0.50;;
46721;SDS011;32455;43.430;23.136;2022-09-16T17:08:04;0.85;;;0.50;;
46721;SDS011;32455;43.430;23.136;2022-09-16T17:11:03;0.40;;;0.40;;
46721;SDS011;32455;43.430;23.136;2022-09-16T17:13:56;0.65;;;0.50;;
46721;SDS011;32455;43.430;23.136;2022-09-16T17:16:43;2.10;;;0.60;;
46721;SDS011;32455;43.430;23.136;2022-09-16T17:19:31;2.88;;;1.27;;
46721;SDS011;32455;43.430;23.136;2022-09-16T17:22:16;1.55;;;0.80;;
46721;SDS011;32455;43.430;23.136;2022-09-16T17:25:02;1.02;;;0.45;;
46721;SDS011;32455;43.430;23.136;2022-09-16T17:27:47;2.45;;;1.10;;
46721;SDS011;32455;43.430;23.136;2022-09-16T17:30:33;0.93;;;0.60;;
46721;SDS011;32455;43.430;23.136;2022-09-16T17:33:18;1.00;;;0.70;;
46721;SDS011;32455;43.430;23.136;2022-09-16T17:36:05;6.35;;;0.90;;
46721;SDS011;32455;43.430;23.136;2022-09-16T17:38:55;1.10;;;0.77;;
46721;SDS011;32455;43.430;23.136;2022-09-16T17:41:51;3.38;;;0.80;;
46721;SDS011;32455;43.430;23.136;2022-09-16T17:44:38;2.60;;;0.70;;
46721;SDS011;32455;43.430;23.136;2022-09-16T17:47:23;1.80;;;0.60;;
46721;SDS011;32455;43.430;23.136;2022-09-16T17:50:09;1.65;;;0.70;;
46721;SDS011;32455;43.430;23.136;2022-09-16T17:52:55;2.15;;;1.02;;
46721;SDS011;32455;43.430;23.136;2022-09-16T17:55:41;3.05;;;0.90;;
46721;SDS011;32455;43.430;23.136;2022-09-16T17:58:26;2.13;;;1.00;;
46721;SDS011;32455;43.430;23.136;2022-09-16T18:01:13;3.80;;;1.10;;
46721;SDS011;32455;43.430;23.136;2022-09-16T18:04:01;1.20;;;0.52;;
46721;SDS011;32455;43.430;23.136;2022-09-16T18:06:47;1.15;;;0.88;;
46721;SDS011;32455;43.430;23.136;2022-09-16T18:09:32;1.40;;;0.70;;
46721;SDS011;32455;43.430;23.136;2022-09-16T18:12:17;4.38;;;1.08;;
46721;SDS011;32455;43.430;23.136;2022-09-16T18:15:03;1.85;;;0.88;;
46721;SDS011;32455;43.430;23.136;2022-09-16T18:17:50;3.13;;;0.70;;
46721;SDS011;32455;43.430;23.136;2022-09-16T18:20:35;2.22;;;0.70;;
46721;SDS011;32455;43.430;23.136;2022-09-16T18:23:20;1.42;;;0.77;;
46721;SDS011;32455;43.430;23.136;2022-09-16T18:26:07;3.20;;;0.90;;
46721;SDS011;32455;43.430;23.136;2022-09-16T18:28:54;0.98;;;0.70;;
46721;SDS011;32455;43.430;23.136;2022-09-16T18:31:44;2.45;;;0.85;;
46721;SDS011;32455;43.430;23.136;2022-09-16T18:34:30;2.55;;;1.05;;
46721;SDS011;32455;43.430;23.136;2022-09-16T18:37:15;4.38;;;0.75;;
46721;SDS011;32455;43.430;23.136;2022-09-16T18:40:02;3.58;;;1.10;;
46721;SDS011;32455;43.430;23.136;2022-09-16T18:42:47;3.45;;;0.70;;
46721;SDS011;32455;43.430;23.136;2022-09-16T18:45:33;1.30;;;0.90;;
46721;SDS011;32455;43.430;23.136;2022-09-16T18:48:18;2.63;;;0.80;;
46721;SDS011;32455;43.430;23.136;2022-09-16T18:51:04;1.20;;;0.60;;
46721;SDS011;32455;43.430;23.136;2022-09-16T18:53:50;2.05;;;0.98;;
46721;SDS011;32455;43.430;23.136;2022-09-16T18:56:39;1.13;;;0.60;;
46721;SDS011;32455;43.430;23.136;2022-09-16T18:59:25;1.20;;;0.88;;
46721;SDS011;32455;43.430;23.136;2022-09-16T19:02:13;3.67;;;0.63;;
46721;SDS011;32455;43.430;23.136;2022-09-16T19:04:59;4.07;;;1.10;;
46721;SDS011;32455;43.430;23.136;2022-09-16T19:07:45;1.88;;;0.90;;
46721;SDS011;32455;43.430;23.136;2022-09-16T19:10:31;3.45;;;1.10;;
46721;SDS011;32455;43.430;23.136;2022-09-16T19:13:17;4.45;;;0.93;;
46721;SDS011;32455;43.430;23.136;2022-09-16T19:16:06;2.05;;;1.00;;